Time;durP1;ratioP1;P1;durP2;ratioP2;P2;SDS_P1;SDS_P2;PMS_P1;PMS_P2;Temp;Humidity;BMP_temperature;BMP_pressure;BME280_temperature;BME280_humidity;BME280_pressure;Samples;Min_cycle;Max_cycle;Signal;HPM_P1;HPM_P2
2021/09/04 00:02:04;;;;;;;24.27;22.07;;;17.40;99.90;;;;;;5051010;28;20452;-66
2021/09/04 00:04:32;;;;;;;26.10;23.50;;;17.40;99.90;;;;;;5016560;28;20445;-66
2021/09/04 00:06:59;;;;;;;25.93;23.50;;;17.30;99.90;;;;;;5031417;28;20480;-66
2021/09/04 00:09:25;;;;;;;26.03;23.83;;;17.20;99.90;;;;;;5031472;28;20445;-65
2021/09/04 00:11:52;;;;;;;26.00;23.80;;;17.20;99.90;;;;;;5031234;28;20546;-66
2021/09/04 00:14:19;;;;;;;26.53;23.83;;;17.20;99.90;;;;;;5049706;28;20448;-66
2021/09/04 00:16:45;;;;;;;25.93;23.73;;;17.10;99.90;;;;;;5051472;28;20908;-66
2021/09/04 00:19:12;;;;;;;26.30;24.00;;;17.10;99.90;;;;;;5051447;28;20452;-66
2021/09/04 00:21:40;;;;;;;24.43;22.37;;;17.10;99.90;;;;;;5051242;28;20952;-67
2021/09/04 00:24:07;;;;;;;26.07;23.77;;;17.00;99.90;;;;;;5034893;28;20445;-67
2021/09/04 00:26:33;;;;;;;24.80;22.40;;;17.00;99.90;;;;;;5031463;28;20461;-67
2021/09/04 00:29:00;;;;;;;24.93;22.70;;;16.90;99.90;;;;;;5031125;28;20440;-66
2021/09/04 00:31:27;;;;;;;26.57;24.30;;;16.90;99.90;;;;;;5030986;28;20477;-66
2021/09/04 00:33:54;;;;;;;26.33;24.00;;;16.90;99.90;;;;;;5045609;28;20444;-67
2021/09/04 00:36:21;;;;;;;22.73;20.33;;;16.80;99.90;;;;;;5051179;28;20471;-67
2021/09/04 00:38:49;;;;;;;25.40;23.20;;;16.80;99.90;;;;;;5051311;28;20451;-67
2021/09/04 00:41:19;;;;;;;25.30;23.10;;;16.80;99.90;;;;;;5050906;28;20440;-66
2021/09/04 00:43:46;;;;;;;24.40;22.20;;;16.70;99.90;;;;;;5049665;28;20477;-67
2021/09/04 00:46:13;;;;;;;26.40;24.00;;;16.70;99.90;;;;;;5050931;28;20470;-66
2021/09/04 00:48:40;;;;;;;23.20;21.13;;;16.60;99.90;;;;;;5051174;28;20930;-68
2021/09/04 00:51:08;;;;;;;27.80;25.23;;;16.60;99.90;;;;;;5050708;28;20487;-67
2021/09/04 00:53:36;;;;;;;29.43;23.30;;;16.60;99.90;;;;;;5039423;28;20453;-66
2021/09/04 00:56:04;;;;;;;26.13;23.67;;;16.60;99.90;;;;;;5031042;28;20966;-67
2021/09/04 00:58:31;;;;;;;26.10;23.40;;;16.60;99.90;;;;;;5031059;28;21233;-67
2021/09/04 01:00:59;;;;;;;24.20;22.10;;;16.50;99.90;;;;;;5046218;28;20495;-66
2021/09/04 01:03:26;;;;;;;24.67;22.20;;;16.50;99.90;;;;;;5054971;28;20479;-67
2021/09/04 01:05:52;;;;;;;23.80;21.70;;;16.40;99.90;;;;;;5054402;28;20474;-66
2021/09/04 01:08:19;;;;;;;25.33;21.63;;;16.40;99.90;;;;;;5054578;28;20455;-67
2021/09/04 01:10:46;;;;;;;26.37;23.97;;;16.40;99.90;;;;;;5041062;28;20477;-66
2021/09/04 01:13:15;;;;;;;26.00;23.57;;;16.40;99.90;;;;;;5034656;28;20815;-67
2021/09/04 01:15:43;;;;;;;25.83;23.33;;;16.40;99.90;;;;;;5045742;28;20471;-66
2021/09/04 01:18:10;;;;;;;28.10;23.93;;;16.40;99.90;;;;;;5054506;28;20812;-67
2021/09/04 01:20:37;;;;;;;27.50;24.70;;;16.50;99.90;;;;;;5052915;28;20455;-66
2021/09/04 01:23:04;;;;;;;25.47;22.87;;;16.50;99.90;;;;;;5054321;28;20439;-67
2021/09/04 01:25:33;;;;;;;27.17;24.60;;;16.50;99.90;;;;;;5054504;28;20516;-66
2021/09/04 01:28:03;;;;;;;25.73;23.43;;;16.50;99.90;;;;;;5054227;28;21054;-66
2021/09/04 01:30:31;;;;;;;24.57;22.10;;;16.50;99.90;;;;;;5052740;28;20479;-67
2021/09/04 01:32:57;;;;;;;31.10;23.30;;;16.40;99.90;;;;;;5053741;28;20523;-66
2021/09/04 01:35:26;;;;;;;28.73;24.47;;;16.40;99.90;;;;;;5054551;28;20455;-67
2021/09/04 01:37:53;;;;;;;26.20;23.40;;;16.40;99.90;;;;;;5054059;28;20468;-66
2021/09/04 01:40:20;;;;;;;25.67;23.07;;;16.30;99.90;;;;;;5044991;28;20472;-67
2021/09/04 01:42:49;;;;;;;26.83;23.97;;;16.30;99.90;;;;;;5034073;28;20506;-66
2021/09/04 01:45:17;;;;;;;26.50;23.53;;;16.30;99.90;;;;;;5034136;28;20862;-66
2021/09/04 01:47:44;;;;;;;24.97;22.30;;;16.20;99.90;;;;;;5034161;28;20468;-66
2021/09/04 01:50:13;;;;;;;26.30;23.47;;;16.20;99.90;;;;;;5041318;28;20440;-67
2021/09/04 01:52:41;;;;;;;31.57;27.97;;;16.20;99.90;;;;;;5053607;28;20448;-66
2021/09/04 01:55:09;;;;;;;31.93;23.40;;;16.20;99.90;;;;;;5053931;28;20523;-67
2021/09/04 01:57:37;;;;;;;28.40;23.40;;;16.20;99.90;;;;;;5053738;28;20833;-66
2021/09/04 02:00:06;;;;;;;27.17;23.83;;;16.20;99.90;;;;;;5047556;28;20472;-66
2021/09/04 02:02:34;;;;;;;26.27;23.50;;;16.10;99.90;;;;;;5033560;28;20437;-66
2021/09/04 02:05:01;;;;;;;30.27;25.43;;;16.10;99.90;;;;;;5033975;28;20449;-66
2021/09/04 02:07:29;;;;;;;28.17;23.70;;;16.10;99.90;;;;;;5033449;28;20465;-67
2021/09/04 02:09:55;;;;;;;27.87;22.97;;;16.00;99.90;;;;;;5038347;28;20444;-67
2021/09/04 02:12:22;;;;;;;27.53;23.57;;;16.00;99.90;;;;;;5052008;28;20507;-66
2021/09/04 02:14:49;;;;;;;31.23;25.07;;;16.00;99.90;;;;;;5053495;28;20458;-66
2021/09/04 02:17:15;;;;;;;38.23;28.93;;;16.00;99.90;;;;;;5053122;28;21004;-66
2021/09/04 02:19:43;;;;;;;28.33;24.13;;;16.00;99.90;;;;;;5050108;28;20451;-66
2021/09/04 02:22:11;;;;;;;32.80;26.30;;;15.90;99.90;;;;;;5033000;28;20821;-67
2021/09/04 02:24:38;;;;;;;31.50;27.43;;;15.90;99.90;;;;;;5033336;28;20511;-66
2021/09/04 02:27:06;;;;;;;26.63;23.83;;;15.80;99.90;;;;;;5033269;28;20472;-67
2021/09/04 02:29:32;;;;;;;27.00;24.13;;;15.80;99.90;;;;;;5034287;28;20532;-67
2021/09/04 02:31:59;;;;;;;27.60;24.70;;;15.70;99.90;;;;;;5052893;28;20825;-66
2021/09/04 02:34:26;;;;;;;28.77;25.87;;;15.70;99.90;;;;;;5053097;28;20444;-66
2021/09/04 02:36:54;;;;;;;28.27;22.30;;;15.60;99.90;;;;;;5053053;28;20471;-66
2021/09/04 02:39:20;;;;;;;35.53;26.50;;;15.60;99.90;;;;;;5053033;28;21287;-65
2021/09/04 02:41:47;;;;;;;35.63;25.47;;;15.60;99.90;;;;;;5033003;28;20951;-66
2021/09/04 02:44:14;;;;;;;30.87;23.63;;;15.60;99.90;;;;;;5033016;28;20445;-66
2021/09/04 02:46:40;;;;;;;28.47;23.60;;;15.60;99.90;;;;;;5032959;28;20461;-66
2021/09/04 02:49:07;;;;;;;30.93;24.97;;;15.60;99.90;;;;;;5032931;28;20445;-67
2021/09/04 02:51:35;;;;;;;26.70;22.70;;;15.60;99.90;;;;;;5049747;28;21015;-66
2021/09/04 02:54:03;;;;;;;30.63;24.00;;;15.50;99.90;;;;;;5052337;28;20453;-66
2021/09/04 02:56:30;;;;;;;28.37;21.87;;;15.50;99.90;;;;;;5052659;28;20828;-66
2021/09/04 02:58:56;;;;;;;31.20;23.10;;;15.50;99.90;;;;;;5052687;28;20448;-66
2021/09/04 03:01:23;;;;;;;30.90;22.20;;;15.40;99.90;;;;;;5036387;28;20851;-66
2021/09/04 03:03:50;;;;;;;28.73;21.83;;;15.40;99.90;;;;;;5032688;28;20445;-66
2021/09/04 03:06:16;;;;;;;30.53;21.77;;;15.40;99.90;;;;;;5032179;28;20484;-66
2021/09/04 03:08:43;;;;;;;34.50;24.00;;;15.40;99.90;;;;;;5032372;28;20453;-66
2021/09/04 03:11:12;;;;;;;30.77;23.53;;;15.40;99.90;;;;;;5045001;28;21031;-67
2021/09/04 03:13:38;;;;;;;37.53;22.93;;;15.40;99.90;;;;;;5052246;28;20440;-67
2021/09/04 03:16:06;;;;;;;33.97;24.17;;;15.40;99.90;;;;;;5052085;28;20996;-65
2021/09/04 03:18:33;;;;;;;40.03;29.27;;;15.40;99.90;;;;;;5052251;28;20479;-66
2021/09/04 03:21:00;;;;;;;36.63;25.80;;;15.40;99.90;;;;;;5040654;28;20441;-65
2021/09/04 03:23:27;;;;;;;31.37;25.23;;;15.40;99.90;;;;;;5032542;28;20808;-66
2021/09/04 03:25:54;;;;;;;32.20;22.57;;;15.40;99.90;;;;;;5032326;28;20433;-65
2021/09/04 03:28:22;;;;;;;31.87;24.17;;;15.40;99.90;;;;;;5032326;28;20441;-66
2021/09/04 03:30:49;;;;;;;37.10;26.10;;;15.30;99.90;;;;;;5041510;28;20444;-67
2021/09/04 03:33:16;;;;;;;32.10;25.50;;;15.30;99.90;;;;;;5051509;28;20451;-66
2021/09/04 03:35:42;;;;;;;37.97;25.97;;;15.30;99.90;;;;;;5052179;28;20451;-67
2021/09/04 03:38:10;;;;;;;33.23;24.53;;;15.20;99.90;;;;;;5051806;28;20440;-66
2021/09/04 03:40:37;;;;;;;35.13;25.67;;;15.20;99.90;;;;;;5043827;28;20481;-66
2021/09/04 03:43:04;;;;;;;32.13;22.77;;;15.10;99.90;;;;;;5032094;28;20441;-68
2021/09/04 03:45:33;;;;;;;39.87;26.40;;;15.10;99.90;;;;;;5032061;28;20532;-66
2021/09/04 03:48:01;;;;;;;38.30;25.07;;;15.10;99.90;;;;;;5044075;28;20548;-66
2021/09/04 03:50:28;;;;;;;40.33;29.93;;;15.10;99.90;;;;;;5051835;28;20901;-65
2021/09/04 03:52:57;;;;;;;40.80;26.60;;;15.10;99.90;;;;;;5051553;28;20563;-66
2021/09/04 03:55:24;;;;;;;37.07;26.43;;;15.00;99.90;;;;;;5051666;28;20803;-66
2021/09/04 03:57:51;;;;;;;36.53;27.10;;;15.00;99.90;;;;;;5037345;28;20469;-67
2021/09/04 04:00:18;;;;;;;46.17;32.40;;;15.00;99.90;;;;;;5031780;28;20453;-66
2021/09/04 04:02:46;;;;;;;42.13;28.50;;;15.00;99.90;;;;;;5031506;28;20444;-67
2021/09/04 04:05:14;;;;;;;35.97;24.30;;;15.00;99.90;;;;;;5031749;28;20964;-66
2021/09/04 04:07:41;;;;;;;43.27;27.97;;;15.00;99.90;;;;;;5032614;28;20480;-67
2021/09/04 04:10:09;;;;;;;38.33;25.50;;;15.00;99.90;;;;;;5031812;28;20441;-68
2021/09/04 04:12:36;;;;;;;35.63;25.47;;;14.90;99.90;;;;;;5032574;28;20848;-67
2021/09/04 04:15:03;;;;;;;37.67;25.67;;;14.90;99.90;;;;;;5031735;28;20480;-67
2021/09/04 04:17:30;;;;;;;37.43;27.07;;;14.90;99.90;;;;;;5029831;28;20461;-67
2021/09/04 04:19:58;;;;;;;41.43;28.77;;;14.80;99.90;;;;;;5029546;28;20444;-68
2021/09/04 04:22:25;;;;;;;38.07;28.50;;;14.80;99.90;;;;;;5039329;28;20448;-68
2021/09/04 04:24:52;;;;;;;44.37;27.60;;;14.80;99.90;;;;;;5049484;28;20459;-67
2021/09/04 04:27:19;;;;;;;41.47;28.70;;;14.80;99.90;;;;;;5049570;28;20479;-67
2021/09/04 04:29:46;;;;;;;37.17;27.20;;;14.80;99.90;;;;;;5049559;28;20440;-66
2021/09/04 04:32:13;;;;;;;45.23;28.70;;;14.80;99.90;;;;;;5041861;28;20485;-67
2021/09/04 04:34:39;;;;;;;48.70;30.90;;;14.80;99.90;;;;;;5031603;28;20966;-68
2021/09/04 04:37:08;;;;;;;40.93;28.80;;;14.80;99.90;;;;;;5035692;28;20461;-67
2021/09/04 04:39:35;;;;;;;40.27;27.23;;;14.80;99.90;;;;;;5035476;28;20464;-68
2021/09/04 04:42:01;;;;;;;48.33;28.90;;;14.80;99.90;;;;;;5041102;28;20454;-67
2021/09/04 04:44:28;;;;;;;42.07;28.00;;;14.70;99.90;;;;;;5054847;28;20440;-66
2021/09/04 04:46:55;;;;;;;45.00;30.03;;;14.70;99.90;;;;;;5055332;28;20636;-67
2021/09/04 04:49:22;;;;;;;40.97;29.47;;;14.70;99.90;;;;;;5055278;28;20452;-66
2021/09/04 04:51:48;;;;;;;39.03;27.40;;;14.70;99.90;;;;;;5050376;28;21048;-64
2021/09/04 04:54:16;;;;;;;44.90;28.13;;;14.60;99.90;;;;;;5035212;28;20457;-67
2021/09/04 04:56:43;;;;;;;40.70;27.93;;;14.70;99.90;;;;;;5034919;28;20824;-65
2021/09/04 04:59:10;;;;;;;46.13;31.23;;;14.70;99.90;;;;;;5035368;28;20452;-65
2021/09/04 05:01:37;;;;;;;44.80;29.40;;;14.70;99.90;;;;;;5034932;28;20441;-65
2021/09/04 05:04:04;;;;;;;42.00;28.40;;;14.70;99.90;;;;;;5036040;28;20452;-66
2021/09/04 05:06:31;;;;;;;44.80;29.27;;;14.70;99.90;;;;;;5035014;28;20500;-66
2021/09/04 05:08:58;;;;;;;42.83;28.53;;;14.70;99.90;;;;;;5035390;28;20818;-65
2021/09/04 05:11:26;;;;;;;47.47;31.80;;;14.70;99.90;;;;;;5034886;28;20441;-65
2021/09/04 05:13:53;;;;;;;48.50;30.70;;;14.70;99.90;;;;;;5035963;28;20942;-66
2021/09/04 05:16:19;;;;;;;44.27;29.57;;;14.70;99.90;;;;;;5036788;28;21014;-64
2021/09/04 05:18:49;;;;;;;42.00;30.03;;;14.70;99.90;;;;;;5034792;28;20445;-65
2021/09/04 05:21:16;;;;;;;50.20;31.97;;;14.70;99.90;;;;;;5034335;28;20543;-65
2021/09/04 05:23:43;;;;;;;46.33;29.80;;;14.70;99.90;;;;;;5034708;28;20444;-65
2021/09/04 05:26:11;;;;;;;45.53;31.20;;;14.70;99.90;;;;;;5042093;28;20472;-65
2021/09/04 05:28:39;;;;;;;46.80;29.30;;;14.80;99.90;;;;;;5054158;28;20435;-65
2021/09/04 05:31:06;;;;;;;46.83;31.50;;;14.80;99.90;;;;;;5054364;28;20444;-66
2021/09/04 05:33:33;;;;;;;45.87;30.13;;;14.80;99.90;;;;;;5054262;28;20876;-65
2021/09/04 05:36:00;;;;;;;45.00;30.37;;;14.80;99.90;;;;;;5054392;28;20470;-65
2021/09/04 05:38:27;;;;;;;47.90;32.77;;;14.90;99.90;;;;;;5046207;28;20507;-64
2021/09/04 05:40:53;;;;;;;47.40;29.80;;;14.90;99.90;;;;;;5034465;28;20449;-64
2021/09/04 05:43:21;;;;;;;49.43;32.47;;;14.90;99.90;;;;;;5034162;28;20440;-65
2021/09/04 05:45:49;;;;;;;46.57;30.60;;;14.90;99.90;;;;;;5034205;28;20491;-65
2021/09/04 05:48:16;;;;;;;46.57;29.20;;;14.90;99.90;;;;;;5033170;28;20934;-65
2021/09/04 05:50:43;;;;;;;49.07;31.70;;;14.90;99.90;;;;;;5045070;28;20455;-63
2021/09/04 05:53:10;;;;;;;47.70;32.27;;;15.00;99.90;;;;;;5053715;28;21000;-65
2021/09/04 05:55:37;;;;;;;42.80;33.33;;;15.00;99.90;;;;;;5053986;28;20440;-65
2021/09/04 05:58:03;;;;;;;51.13;32.47;;;15.10;99.90;;;;;;5050826;28;20444;-64
2021/09/04 06:00:30;;;;;;;51.83;30.80;;;15.10;99.90;;;;;;5033985;28;20445;-64
2021/09/04 06:02:59;;;;;;;44.40;31.67;;;15.10;99.90;;;;;;5033696;28;20437;-65
2021/09/04 06:05:26;;;;;;;49.23;32.17;;;15.10;99.90;;;;;;5033731;28;20507;-65
2021/09/04 06:07:52;;;;;;;45.17;29.10;;;15.10;99.90;;;;;;5034505;28;20479;-65
2021/09/04 06:10:20;;;;;;;55.40;32.87;;;15.20;99.90;;;;;;5053736;28;20444;-65
2021/09/04 06:12:46;;;;;;;48.97;33.97;;;15.20;99.90;;;;;;5053448;28;20483;-64
2021/09/04 06:15:13;;;;;;;49.63;35.33;;;15.30;99.90;;;;;;5053335;28;20449;-65
2021/09/04 06:17:40;;;;;;;43.87;31.93;;;15.40;99.90;;;;;;5053659;28;20464;-64
2021/09/04 06:20:10;;;;;;;52.97;34.10;;;15.50;99.90;;;;;;5049358;28;20449;-64
2021/09/04 06:22:37;;;;;;;51.70;33.07;;;15.50;99.90;;;;;;5033401;28;20441;-64
2021/09/04 06:25:04;;;;;;;48.80;36.40;;;15.60;99.90;;;;;;5033624;28;20813;-64
2021/09/04 06:27:31;;;;;;;46.87;35.13;;;15.70;99.90;;;;;;5033487;28;20460;-65
2021/09/04 06:29:58;;;;;;;46.40;32.10;;;15.80;99.90;;;;;;5033493;28;20795;-63
2021/09/04 06:32:26;;;;;;;48.10;30.43;;;15.90;99.90;;;;;;5038483;28;20479;-67
2021/09/04 06:34:54;;;;;;;44.50;33.83;;;16.00;99.90;;;;;;5053032;28;20488;-67
2021/09/04 06:37:23;;;;;;;41.50;33.77;;;16.30;99.90;;;;;;5053140;28;20476;-68
2021/09/04 06:39:50;;;;;;;45.50;32.37;;;16.50;99.90;;;;;;5053265;28;20451;-69
2021/09/04 06:42:17;;;;;;;29.60;24.60;;;16.70;99.90;;;;;;5053130;28;20475;-69
2021/09/04 06:44:44;;;;;;;31.40;25.10;;;16.80;99.90;;;;;;5043951;28;20889;-69
2021/09/04 06:47:11;;;;;;;29.40;25.60;;;17.20;99.90;;;;;;5033062;28;20477;-68
2021/09/04 06:49:38;;;;;;;31.07;26.03;;;17.50;99.90;;;;;;5032691;28;20958;-69
2021/09/04 06:52:05;;;;;;;31.50;25.43;;;17.80;99.90;;;;;;5032357;28;20457;-69
2021/09/04 06:54:33;;;;;;;32.57;28.00;;;17.90;99.90;;;;;;5032967;28;20862;-70
2021/09/04 06:57:02;;;;;;;35.33;29.70;;;18.00;99.90;;;;;;5041945;28;20483;-69
2021/09/04 06:59:29;;;;;;;33.10;27.07;;;18.10;99.90;;;;;;5052540;28;20948;-67
2021/09/04 07:01:55;;;;;;;34.20;28.40;;;18.30;99.90;;;;;;5052480;28;20455;-68
2021/09/04 07:04:22;;;;;;;34.73;28.40;;;18.40;99.90;;;;;;5052787;28;20452;-70
2021/09/04 07:06:49;;;;;;;33.27;27.47;;;18.60;99.90;;;;;;5052535;28;20479;-67
2021/09/04 07:09:17;;;;;;;29.87;26.80;;;18.80;99.90;;;;;;5043360;28;20507;-68
2021/09/04 07:11:45;;;;;;;30.10;26.90;;;18.60;99.90;;;;;;5036455;28;20444;-67
2021/09/04 07:14:12;;;;;;;31.90;28.40;;;18.60;99.90;;;;;;5052620;28;20563;-70
2021/09/04 07:16:39;;;;;;;35.20;30.60;;;18.80;99.90;;;;;;5052327;28;20835;-68
2021/09/04 07:19:06;;;;;;;38.90;34.20;;;18.50;99.90;;;;;;5052367;28;20444;-68
2021/09/04 07:21:32;;;;;;;34.30;30.63;;;18.20;99.90;;;;;;5040761;28;20477;-67
2021/09/04 07:23:59;;;;;;;34.77;31.03;;;18.50;99.90;;;;;;5032352;28;20934;-68
2021/09/04 07:26:26;;;;;;;34.00;30.70;;;18.70;99.90;;;;;;5032513;28;20464;-68
2021/09/04 07:28:54;;;;;;;36.40;32.67;;;18.80;99.90;;;;;;5035028;28;20440;-67
2021/09/04 07:31:20;;;;;;;31.57;28.33;;;18.80;99.90;;;;;;5052057;28;20448;-70
2021/09/04 07:33:47;;;;;;;35.47;31.97;;;18.90;99.90;;;;;;5051914;28;20503;-70
2021/09/04 07:36:14;;;;;;;37.07;33.20;;;19.20;99.90;;;;;;5041170;28;20469;-69
2021/09/04 07:38:40;;;;;;;31.57;28.47;;;19.30;99.90;;;;;;5032190;28;20927;-70
2021/09/04 07:41:07;;;;;;;37.07;33.17;;;19.20;99.90;;;;;;5031282;28;20467;-68
2021/09/04 07:43:34;;;;;;;33.07;29.60;;;19.00;99.90;;;;;;5031620;28;20467;-69
2021/09/04 07:46:02;;;;;;;38.10;33.80;;;19.10;99.90;;;;;;5039197;28;20460;-72
2021/09/04 07:48:29;;;;;;;37.33;33.63;;;19.00;99.90;;;;;;5051912;28;20941;-69
2021/09/04 07:50:56;;;;;;;40.57;34.63;;;18.90;99.90;;;;;;5051868;28;20471;-72
2021/09/04 07:53:23;;;;;;;40.37;34.10;;;18.90;99.90;;;;;;5051552;28;20479;-70
2021/09/04 07:55:50;;;;;;;39.10;34.83;;;19.00;99.90;;;;;;5051791;28;20448;-69
2021/09/04 07:58:16;;;;;;;37.90;32.63;;;18.90;99.90;;;;;;5051550;28;20464;-68
2021/09/04 08:00:43;;;;;;;37.60;33.90;;;18.90;99.90;;;;;;5051694;28;20885;-66
2021/09/04 08:03:11;;;;;;;30.70;27.60;;;19.00;99.90;;;;;;5051466;28;20444;-66
2021/09/04 08:05:42;;;;;;;34.43;29.93;;;19.10;99.90;;;;;;5051324;28;20494;-66
2021/09/04 08:08:09;;;;;;;35.50;31.13;;;19.40;99.90;;;;;;5051496;28;20444;-66
2021/09/04 08:10:38;;;;;;;33.47;30.17;;;19.60;99.90;;;;;;5048846;28;20975;-67
2021/09/04 08:13:05;;;;;;;34.10;30.70;;;19.80;99.90;;;;;;5051246;28;20533;-66
2021/09/04 08:15:32;;;;;;;32.60;29.50;;;19.80;99.90;;;;;;5051456;28;20869;-66
2021/09/04 08:18:00;;;;;;;30.53;27.70;;;19.70;99.90;;;;;;5051582;28;20464;-65
2021/09/04 08:20:28;;;;;;;32.60;29.50;;;19.70;99.90;;;;;;5043200;28;20444;-66
2021/09/04 08:22:55;;;;;;;33.50;30.30;;;19.60;99.90;;;;;;5030889;28;20449;-66
2021/09/04 08:25:22;;;;;;;32.93;29.80;;;19.50;99.90;;;;;;5031583;28;20455;-66
2021/09/04 08:27:49;;;;;;;32.83;29.50;;;19.40;99.90;;;;;;5031322;28;20461;-66
2021/09/04 08:30:16;;;;;;;34.73;31.27;;;19.50;99.90;;;;;;5031541;28;20452;-67
2021/09/04 08:32:43;;;;;;;30.40;27.37;;;19.40;99.90;;;;;;5041841;28;20480;-67
2021/09/04 08:35:10;;;;;;;33.13;29.63;;;19.50;99.90;;;;;;5051268;28;20439;-67
2021/09/04 08:37:42;;;;;;;29.23;26.43;;;19.70;99.90;;;;;;5051249;28;20460;-66
2021/09/04 08:40:10;;;;;;;31.90;28.70;;;19.20;99.90;;;;;;5047037;28;20865;-66
2021/09/04 08:42:37;;;;;;;31.67;28.50;;;19.00;99.90;;;;;;5031136;28;20456;-66
2021/09/04 08:45:04;;;;;;;30.13;27.30;;;18.80;99.90;;;;;;5031398;28;20441;-66
2021/09/04 08:47:31;;;;;;;27.07;24.60;;;18.80;99.90;;;;;;5031416;28;20532;-66
2021/09/04 08:49:59;;;;;;;30.27;27.27;;;19.00;99.90;;;;;;5032161;28;21050;-65
2021/09/04 08:52:28;;;;;;;29.43;26.43;;;19.30;99.90;;;;;;5049277;28;20509;-68
2021/09/04 08:54:56;;;;;;;28.13;25.23;;;19.50;99.90;;;;;;5033891;28;20954;-67
2021/09/04 08:57:22;;;;;;;32.97;30.00;;;19.30;99.90;;;;;;5031087;28;20462;-65
2021/09/04 08:59:50;;;;;;;30.67;27.57;;;19.40;99.90;;;;;;5031175;28;20452;-67
2021/09/04 09:02:18;;;;;;;30.10;27.23;;;19.40;99.90;;;;;;5033508;28;20449;-68
2021/09/04 09:04:59;;;;;;;23.37;21.40;;;19.50;99.90;;;;;;5044695;28;20981;-68
2021/09/04 09:07:38;;;;;;;27.80;25.20;;;19.70;99.90;;;;;;5031105;28;20477;-67
2021/09/04 09:10:13;;;;;;;32.27;29.07;;;19.80;99.90;;;;;;5031040;28;20440;-68
2021/09/04 09:12:40;;;;;;;28.93;25.87;;;19.60;99.90;;;;;;5030737;28;20448;-68
2021/09/04 09:15:07;;;;;;;28.50;25.83;;;19.40;99.90;;;;;;5035003;28;20447;-68
2021/09/04 09:17:34;;;;;;;26.13;23.70;;;19.80;99.90;;;;;;5050854;28;20517;-68
2021/09/04 09:20:06;;;;;;;26.67;24.23;;;19.90;99.90;;;;;;5050941;28;20444;-68
2021/09/04 09:22:44;;;;;;;29.37;26.87;;;19.90;99.90;;;;;;5053583;28;20450;-68
2021/09/04 09:25:16;;;;;;;30.40;27.40;;;19.90;99.90;;;;;;5036183;28;20864;-69
2021/09/04 09:28:00;;;;;;;28.73;25.83;;;19.70;99.90;;;;;;5034512;28;20472;-68
2021/09/04 09:30:32;;;;;;;26.80;24.40;;;19.70;99.90;;;;;;5034680;28;20440;-68
2021/09/04 09:32:58;;;;;;;27.43;25.10;;;19.90;99.90;;;;;;5034175;28;20504;-66
2021/09/04 09:35:37;;;;;;;23.57;21.67;;;20.10;99.90;;;;;;5014700;28;20442;-66
2021/09/04 09:38:05;;;;;;;26.87;24.67;;;20.30;99.90;;;;;;5014472;28;20450;-66
2021/09/04 09:40:34;;;;;;;26.13;24.03;;;20.30;99.90;;;;;;5014562;28;20449;-67
2021/09/04 09:43:01;;;;;;;26.67;24.47;;;20.40;99.90;;;;;;5042295;28;20456;-67
2021/09/04 09:45:44;;;;;;;27.97;25.33;;;20.40;99.90;;;;;;5054153;28;20459;-67
2021/09/04 09:48:11;;;;;;;23.07;21.13;;;20.20;99.90;;;;;;5054414;28;20439;-67
2021/09/04 09:50:38;;;;;;;26.90;24.70;;;20.60;99.90;;;;;;5054079;28;20444;-67
2021/09/04 09:53:06;;;;;;;26.30;23.83;;;20.70;99.90;;;;;;5039332;28;20488;-68
2021/09/04 09:55:35;;;;;;;25.57;23.33;;;20.90;99.90;;;;;;5041826;28;20522;-68
2021/09/04 09:58:02;;;;;;;27.80;25.33;;;20.80;99.90;;;;;;5053949;28;20472;-67
2021/09/04 10:00:31;;;;;;;26.17;24.03;;;20.80;99.90;;;;;;5054011;28;21150;-68
2021/09/04 10:03:00;;;;;;;24.87;22.77;;;20.60;99.90;;;;;;5053662;28;20505;-67
2021/09/04 10:05:29;;;;;;;26.87;24.67;;;20.80;99.90;;;;;;5034674;28;20453;-67
2021/09/04 10:07:57;;;;;;;25.53;23.33;;;21.10;99.90;;;;;;5034111;28;20522;-67
2021/09/04 10:10:25;;;;;;;26.87;24.60;;;21.40;99.90;;;;;;5034907;28;20962;-67
2021/09/04 10:12:54;;;;;;;27.07;24.77;;;21.60;99.90;;;;;;5033449;28;20452;-68
2021/09/04 10:15:23;;;;;;;27.33;24.93;;;21.10;99.90;;;;;;5035829;28;20787;-68
2021/09/04 10:17:51;;;;;;;25.20;23.20;;;21.20;99.90;;;;;;5053504;28;21001;-69
2021/09/04 10:20:19;;;;;;;25.23;23.30;;;21.60;99.90;;;;;;5053590;28;20483;-67
2021/09/04 10:22:45;;;;;;;29.40;27.07;;;21.80;99.90;;;;;;5053308;28;20455;-68
2021/09/04 10:25:17;;;;;;;23.03;21.43;;;21.80;99.90;;;;;;5053532;28;20436;-68
2021/09/04 10:27:45;;;;;;;25.23;23.43;;;22.00;99.90;;;;;;5045134;28;20468;-68
2021/09/04 10:30:25;;;;;;;30.60;28.03;;;22.30;99.90;;;;;;5033605;28;20927;-68
2021/09/04 10:32:59;;;;;;;26.00;24.10;;;22.10;99.90;;;;;;5032477;28;20441;-70
2021/09/04 10:35:44;;;;;;;27.90;25.50;;;22.20;99.90;;;;;;5033496;28;20507;-69
2021/09/04 10:38:38;;;;;;;26.40;24.30;;;21.80;99.90;;;;;;5033606;28;20452;-68
2021/09/04 10:41:19;;;;;;;27.93;25.60;;;21.90;99.90;;;;;;5047635;28;20452;-68
2021/09/04 10:43:48;;;;;;;28.50;26.10;;;22.10;99.90;;;;;;5052917;28;20436;-67
2021/09/04 10:46:19;;;;;;;26.50;24.20;;;21.80;99.90;;;;;;5013319;28;20458;-67
2021/09/04 10:48:56;;;;;;;27.43;25.33;;;21.90;99.90;;;;;;5013538;28;20446;-68
2021/09/04 10:51:47;;;;;;;24.63;22.83;;;22.00;99.90;;;;;;5023570;28;20479;-69
2021/09/04 10:54:57;;;;;;;25.70;23.90;;;22.00;99.90;;;;;;5052850;28;20954;-70
2021/09/04 10:57:24;;;;;;;26.77;24.60;;;22.50;99.90;;;;;;5053333;28;20464;-68
2021/09/04 11:00:01;;;;;;;26.87;24.80;;;22.50;99.90;;;;;;5053201;28;20442;-69
2021/09/04 11:02:49;;;;;;;25.03;23.40;;;22.90;99.90;;;;;;5053124;28;20926;-68
2021/09/04 11:05:27;;;;;;;24.27;22.40;;;23.00;99.90;;;;;;5034925;28;20434;-68
2021/09/04 11:07:59;;;;;;;25.90;24.20;;;23.50;99.90;;;;;;5032484;28;20472;-69
2021/09/04 11:10:26;;;;;;;26.30;24.50;;;23.80;99.90;;;;;;5032689;28;20448;-70
2021/09/04 11:13:27;;;;;;;29.40;27.40;;;24.30;99.90;;;;;;5032352;28;20449;-68
2021/09/04 11:15:54;;;;;;;27.43;25.60;;;24.80;99.90;;;;;;5036275;28;20444;-68
2021/09/04 11:18:22;;;;;;;26.23;24.70;;;24.60;99.90;;;;;;5052205;28;20441;-67
2021/09/04 11:20:50;;;;;;;26.20;24.53;;;25.00;99.90;;;;;;5052462;28;20451;-68
2021/09/04 11:23:25;;;;;;;25.87;24.47;;;25.80;99.90;;;;;;5052065;28;20447;-68
2021/09/04 11:25:52;;;;;;;29.80;28.00;;;26.20;99.90;;;;;;5034039;28;20448;-69
2021/09/04 11:28:29;;;;;;;28.67;26.97;;;27.10;97.50;;;;;;5032256;28;20943;-69
2021/09/04 11:30:56;;;;;;;32.17;30.10;;;27.60;94.70;;;;;;5032195;28;20444;-69
2021/09/04 11:33:24;;;;;;;28.57;26.90;;;27.70;92.40;;;;;;5032127;28;20447;-70
2021/09/04 11:35:51;;;;;;;28.30;26.70;;;28.70;91.10;;;;;;5049766;28;20933;-68
2021/09/04 11:38:19;;;;;;;29.77;27.83;;;30.00;80.80;;;;;;5038818;28;20467;-70
2021/09/04 11:40:47;;;;;;;30.77;28.97;;;31.10;73.80;;;;;;5032261;28;20457;-67
2021/09/04 11:43:16;;;;;;;29.07;27.33;;;32.20;65.60;;;;;;5032039;28;20448;-69
2021/09/04 11:45:44;;;;;;;31.93;30.03;;;33.40;58.10;;;;;;5033338;28;20440;-69
2021/09/04 11:48:12;;;;;;;30.67;28.87;;;33.00;54.80;;;;;;5052016;28;20443;-69
2021/09/04 11:50:41;;;;;;;30.50;28.80;;;33.60;53.00;;;;;;5051903;28;20454;-69
2021/09/04 11:53:10;;;;;;;30.87;29.07;;;34.10;52.60;;;;;;5051786;28;20475;-68
2021/09/04 11:55:37;;;;;;;30.90;29.20;;;34.50;49.50;;;;;;5036495;28;20503;-68
2021/09/04 11:58:05;;;;;;;31.27;29.53;;;34.40;48.40;;;;;;5031790;28;20452;-68
2021/09/04 12:00:33;;;;;;;31.77;29.87;;;35.20;48.40;;;;;;5031792;28;20452;-69
2021/09/04 12:03:01;;;;;;;28.53;27.00;;;36.30;45.80;;;;;;5031655;28;20212;-70
2021/09/04 12:05:30;;;;;;;31.63;29.90;;;36.20;44.20;;;;;;5045337;28;20244;-69
2021/09/04 12:08:04;;;;;;;33.37;31.47;;;35.10;44.40;;;;;;5051486;28;20252;-68
2021/09/04 12:10:32;;;;;;;31.23;29.53;;;35.30;44.30;;;;;;5051873;28;20200;-70
2021/09/04 12:13:00;;;;;;;30.48;28.77;;;35.60;44.30;;;;;;5051438;28;20209;-69
2021/09/04 12:15:29;;;;;;;32.13;30.17;;;37.70;42.30;;;;;;5051569;28;20220;-70
2021/09/04 12:17:58;;;;;;;32.40;30.50;;;37.40;40.70;;;;;;5032422;28;20217;-68
2021/09/04 12:20:31;;;;;;;31.15;29.25;;;38.70;40.20;;;;;;5031711;28;20210;-68
2021/09/04 12:23:02;;;;;;;30.63;28.98;;;39.70;38.20;;;;;;5031429;28;20209;-68
2021/09/04 12:25:34;;;;;;;29.50;27.90;;;40.20;36.80;;;;;;5031968;28;20198;-61
2021/09/04 12:28:04;;;;;;;31.27;29.58;;;40.80;34.40;;;;;;5016292;28;20225;-61
2021/09/04 12:30:32;;;;;;;31.10;29.33;;;38.70;35.60;;;;;;5051567;28;20236;-64
2021/09/04 12:33:10;;;;;;;30.92;29.33;;;37.80;37.40;;;;;;5051641;28;20833;-64
2021/09/04 12:35:51;;;;;;;30.63;29.00;;;38.50;36.40;;;;;;5051233;28;20216;-62